createdAt,value
2022-11-15T00:02:05.758Z,100075.63
2022-11-15T00:06:27.808Z,100067.78
2022-11-15T00:10:57.882Z,100066.09
2022-11-15T00:15:19.311Z,100066.09
2022-11-15T00:19:40.752Z,100059.97
2022-11-15T00:24:02.266Z,100054.81
2022-11-15T00:28:25.819Z,100045.19
2022-11-15T00:32:47.478Z,100037.34
2022-11-15T00:37:09.248Z,100036.50
2022-11-15T00:41:30.709Z,100033.91
2022-11-15T00:45:53.571Z,100036.38
2022-11-15T00:50:15.766Z,100030.22
2022-11-15T00:54:37.731Z,100030.19
2022-11-15T00:58:59.513Z,100018.78
2022-11-15T01:03:22.153Z,100020.56
2022-11-15T01:07:43.913Z,100015.38
2022-11-15T01:12:05.743Z,100002.25
2022-11-15T01:16:27.262Z,100009.25
2022-11-15T01:20:50.404Z,99996.97
2022-11-15T01:25:11.766Z,100005.59
2022-11-15T01:29:33.448Z,100003.91
2022-11-15T01:33:55.087Z,99993.41
2022-11-15T01:38:18.446Z,99984.66
2022-11-15T01:42:40.278Z,99992.50
2022-11-15T01:47:04.279Z,99993.41
2022-11-15T01:51:28.834Z,99993.41
2022-11-15T01:55:52.127Z,99989.91
2022-11-15T02:00:15.649Z,99987.31
2022-11-15T02:04:41.947Z,99987.28
2022-11-15T02:09:03.899Z,99981.09
2022-11-15T02:13:26.706Z,99974.09
2022-11-15T02:18:08.328Z,99994.28
2022-11-15T02:22:45.142Z,99996.03
2022-11-15T02:27:28.979Z,99982.03
2022-11-15T02:31:59.618Z,99979.44
2022-11-15T02:36:32.860Z,99979.47
2022-11-15T02:40:59.562Z,99989.06
2022-11-15T02:45:27.027Z,99996.81
2022-11-15T02:49:52.169Z,99991.53
2022-11-15T02:54:17.360Z,99993.22
2022-11-15T02:58:56.174Z,99992.34
2022-11-15T03:03:31.391Z,99989.81
2022-11-15T03:08:02.662Z,99981.97
2022-11-15T03:12:30.311Z,99976.81
2022-11-15T03:16:58.573Z,99976.94
2022-11-15T03:21:22.391Z,99975.22
2022-11-15T03:25:50.181Z,99965.63
2022-11-15T03:30:13.406Z,99961.31
2022-11-15T03:34:40.234Z,99970.94
2022-11-15T03:39:07.289Z,99963.91
2022-11-15T03:43:38.409Z,99954.31
2022-11-15T03:48:04.589Z,99939.44
2022-11-15T03:52:26.402Z,99936.75
2022-11-15T03:56:48.024Z,99933.22
2022-11-15T04:01:11.418Z,99925.22
2022-11-15T04:05:33.121Z,99925.16
2022-11-15T04:10:07.383Z,99914.63
2022-11-15T04:14:28.591Z,99907.59
2022-11-15T04:19:11.743Z,99914.53
2022-11-15T04:24:02.314Z,99908.47
2022-11-15T04:28:24.247Z,99903.25
2022-11-15T04:32:45.642Z,99904.09
2022-11-15T04:37:14.509Z,99899.75
2022-11-15T04:41:36.287Z,99905.03
2022-11-15T04:45:57.582Z,99903.34
2022-11-15T04:50:19.596Z,99901.69
2022-11-15T04:54:43.799Z,99892.03
2022-11-15T04:59:05.562Z,99891.09
2022-11-15T05:03:44.323Z,99884.97
2022-11-15T05:08:06.774Z,99884.06
2022-11-15T05:12:30.201Z,99885.78
2022-11-15T05:16:52.331Z,99883.13
2022-11-15T05:21:16.976Z,99880.47
2022-11-15T05:25:39.118Z,99876.91
2022-11-15T05:30:02.367Z,99878.63
2022-11-15T05:34:25.834Z,99870.81
2022-11-15T05:38:48.001Z,99871.66
2022-11-15T05:43:10.238Z,99873.47
2022-11-15T05:47:35.610Z,99869.94
2022-11-15T05:51:58.567Z,99865.59
2022-11-15T05:56:19.991Z,99866.53
2022-11-15T06:00:41.986Z,99870.88
2022-11-15T06:05:06.381Z,99867.34
2022-11-15T06:09:28.256Z,99853.31
2022-11-15T06:13:49.704Z,99858.53
2022-11-15T06:18:11.566Z,99863.72
2022-11-15T06:22:34.542Z,99876.72
2022-11-15T06:26:55.974Z,99881.91
2022-11-15T06:31:19.162Z,99869.63
2022-11-15T06:35:40.855Z,99867.91
2022-11-15T06:40:03.707Z,99879.34
2022-11-15T06:44:25.220Z,99875.00
2022-11-15T06:48:46.544Z,99877.59
2022-11-15T06:53:08.018Z,99887.22
2022-11-15T06:57:30.983Z,99892.47
2022-11-15T07:01:52.653Z,99882.00
2022-11-15T07:06:15.296Z,99880.25
2022-11-15T07:10:36.950Z,99878.56
2022-11-15T07:14:59.879Z,99886.44
2022-11-15T07:19:21.658Z,99889.19
2022-11-15T07:23:43.352Z,99874.38
2022-11-15T07:28:05.666Z,99869.09
2022-11-15T07:32:28.592Z,99873.47
2022-11-15T07:36:51.044Z,99869.97
2022-11-15T07:41:13.608Z,99859.44
2022-11-15T07:45:35.783Z,99851.47
2022-11-15T07:49:58.573Z,99854.16
2022-11-15T07:54:20.402Z,99864.69
2022-11-15T07:58:41.982Z,99861.19
2022-11-15T08:03:04.964Z,99853.31
2022-11-15T08:07:31.412Z,99852.38
2022-11-15T08:11:53.247Z,99848.88
2022-11-15T08:16:14.840Z,99847.25
2022-11-15T08:20:37.688Z,99854.25
2022-11-15T08:25:00.706Z,99849.03
2022-11-15T08:29:22.083Z,99845.53
2022-11-15T08:33:43.672Z,99843.84
2022-11-15T08:38:04.886Z,99835.97
2022-11-15T08:42:27.693Z,99840.34
2022-11-15T08:46:49.367Z,99834.22
2022-11-15T08:51:11.365Z,99845.59
2022-11-15T08:55:33.005Z,99836.91
2022-11-15T08:59:55.934Z,99835.94
2022-11-15T09:04:17.560Z,99836.81
2022-11-15T09:08:48.245Z,99835.97
2022-11-15T09:13:13.369Z,99838.66
2022-11-15T09:17:36.574Z,99831.69
2022-11-15T09:21:58.095Z,99836.94
2022-11-15T09:26:20.485Z,99826.50
2022-11-15T09:30:41.825Z,99819.53
2022-11-15T09:35:05.384Z,99815.16
2022-11-15T09:39:27.024Z,99809.94
2022-11-15T09:43:57.536Z,99793.38
2022-11-15T09:48:37.812Z,99788.13
2022-11-15T09:53:02.521Z,99780.28
2022-11-15T09:57:13.137Z,99786.41
2022-11-15T10:01:28.356Z,99765.50
2022-11-15T10:05:32.556Z,99769.03
2022-11-15T10:09:44.832Z,99765.63
2022-11-15T10:13:50.476Z,99765.63
2022-11-15T10:18:11.134Z,99754.28
2022-11-15T10:22:27.697Z,99751.69
2022-11-15T10:26:32.181Z,99735.94
2022-11-15T10:30:37.504Z,99732.53
2022-11-15T10:34:40.593Z,99717.63
2022-11-15T10:38:57.792Z,99721.19
2022-11-15T10:43:15.505Z,99715.13
2022-11-15T10:47:27.397Z,99703.81
2022-11-15T10:51:32.083Z,99699.47
2022-11-15T10:55:36.966Z,99700.38
2022-11-15T10:59:47.751Z,99695.19
2022-11-15T11:04:02.102Z,99683.00
2022-11-15T11:08:24.610Z,99679.59
2022-11-15T11:12:33.770Z,99667.31
2022-11-15T11:16:50.679Z,99670.88
2022-11-15T11:21:00.286Z,99665.69
2022-11-15T11:25:21.757Z,99656.09
2022-11-15T11:29:40.594Z,99653.47
2022-11-15T11:33:53.712Z,99648.22
2022-11-15T11:38:07.442Z,99635.09
2022-11-15T11:42:19.015Z,99623.69
2022-11-15T11:46:41.184Z,99621.97
2022-11-15T11:50:48.031Z,99626.38
2022-11-15T11:55:06.483Z,99611.47
2022-11-15T11:59:21.361Z,99592.25
2022-11-15T12:03:30.745Z,99598.34
2022-11-15T12:07:38.113Z,99594.88
2022-11-15T12:11:56.455Z,99591.38
2022-11-15T12:16:09.273Z,99586.13
2022-11-15T12:20:19.713Z,99576.53
2022-11-15T12:24:29.002Z,99563.41
2022-11-15T12:28:52.913Z,99561.69
2022-11-15T12:33:03.884Z,99552.94
2022-11-15T12:37:49.384Z,99545.97
2022-11-15T12:42:42.931Z,99541.63
2022-11-15T12:47:05.002Z,99531.13
2022-11-15T12:51:08.088Z,99527.66
2022-11-15T12:55:32.804Z,99528.53
2022-11-15T12:59:54.232Z,99525.00
2022-11-15T13:04:25.125Z,99512.78
2022-11-15T13:08:42.287Z,99504.91
2022-11-15T13:12:54.893Z,99502.25
2022-11-15T13:17:01.560Z,99483.88
2022-11-15T13:21:23.859Z,99484.78
2022-11-15T13:26:03.746Z,99481.25
2022-11-15T13:30:07.634Z,99469.91
2022-11-15T13:34:50.072Z,99476.03
2022-11-15T13:38:57.270Z,99463.78
2022-11-15T13:43:01.495Z,99458.56
2022-11-15T13:47:07.248Z,99456.81
2022-11-15T13:51:20.124Z,99460.31
2022-11-15T13:55:24.903Z,99455.94
2022-11-15T13:59:31.024Z,99447.19
2022-11-15T14:03:35.960Z,99442.84
2022-11-15T14:07:44.472Z,99431.47
2022-11-15T14:11:55.498Z,99429.69
2022-11-15T14:16:17.925Z,99420.97
2022-11-15T14:20:33.563Z,99420.06
2022-11-15T14:24:38.788Z,99413.94
2022-11-15T14:28:41.784Z,99420.09
2022-11-15T14:32:47.631Z,99424.47
2022-11-15T14:36:50.777Z,99411.34
2022-11-15T14:40:56.821Z,99422.72
2022-11-15T14:45:00.073Z,99412.22
2022-11-15T14:49:03.635Z,99413.09
2022-11-15T14:53:07.270Z,99406.06
2022-11-15T14:57:11.639Z,99405.22
2022-11-15T15:01:25.151Z,99402.56
2022-11-15T15:05:33.449Z,99403.44
2022-11-15T15:09:36.431Z,99396.47
2022-11-15T15:13:40.816Z,99397.31
2022-11-15T15:17:44.104Z,99399.94
2022-11-15T15:21:47.066Z,99401.69
2022-11-15T15:25:50.860Z,99394.69
2022-11-15T15:29:55.270Z,99395.56
2022-11-15T15:33:58.238Z,99394.69
2022-11-15T15:38:01.241Z,99396.44
2022-11-15T15:42:04.907Z,99379.81
2022-11-15T15:46:13.695Z,99377.19
2022-11-15T15:50:23.267Z,99371.91
2022-11-15T15:54:26.244Z,99373.69
2022-11-15T15:58:29.719Z,99365.78
2022-11-15T16:02:40.166Z,99360.53
2022-11-15T16:06:51.308Z,99346.53
2022-11-15T16:10:54.584Z,99348.28
2022-11-15T16:14:57.649Z,99357.03
2022-11-15T16:19:02.349Z,99359.66
2022-11-15T16:23:09.360Z,99355.28
2022-11-15T16:27:15.841Z,99355.28
2022-11-15T16:31:22.137Z,99352.66
2022-11-15T16:35:26.811Z,99351.78
2022-11-15T16:39:30.928Z,99353.53
2022-11-15T16:43:33.958Z,99348.28
2022-11-15T16:47:36.972Z,99343.03
2022-11-15T16:51:41.714Z,99345.66
2022-11-15T16:55:44.948Z,99352.66
2022-11-15T16:59:48.230Z,99344.75
2022-11-15T17:03:51.703Z,99346.50
2022-11-15T17:07:56.237Z,99347.38
2022-11-15T17:11:59.331Z,99350.00
2022-11-15T17:16:06.956Z,99340.38
2022-11-15T17:20:16.580Z,99344.75
2022-11-15T17:24:21.749Z,99337.72
2022-11-15T17:28:24.777Z,99334.25
2022-11-15T17:32:27.791Z,99320.19
2022-11-15T17:36:31.246Z,99326.34
2022-11-15T17:40:35.755Z,99328.09
2022-11-15T17:44:38.736Z,99322.84
2022-11-15T17:48:43.245Z,99319.34
2022-11-15T17:52:46.410Z,99308.81
2022-11-15T17:56:50.883Z,99289.53
2022-11-15T18:00:53.921Z,99286.91
2022-11-15T18:04:57.094Z,99286.91
2022-11-15T18:09:00.783Z,99275.53
2022-11-15T18:13:05.526Z,99279.03
2022-11-15T18:17:08.740Z,99270.25
2022-11-15T18:21:13.967Z,99263.25
2022-11-15T18:25:17.704Z,99258.88
2022-11-15T18:29:24.510Z,99258.00
2022-11-15T18:33:28.188Z,99258.00
2022-11-15T18:37:31.311Z,99254.50
2022-11-15T18:41:36.307Z,99250.13
2022-11-15T18:45:40.701Z,99238.72
2022-11-15T18:49:43.660Z,99244.00
2022-11-15T18:53:47.976Z,99250.97
2022-11-15T18:57:50.908Z,99243.13
2022-11-15T19:01:56.967Z,99240.47
2022-11-15T19:06:04.019Z,99241.34
2022-11-15T19:10:08.251Z,99241.31
2022-11-15T19:14:12.736Z,99246.59
2022-11-15T19:18:20.463Z,99234.34
2022-11-15T19:22:23.907Z,99226.44
2022-11-15T19:26:37.020Z,99233.47
2022-11-15T19:30:40.645Z,99233.47
2022-11-15T19:34:44.988Z,99221.19
2022-11-15T19:38:48.371Z,99227.31
2022-11-15T19:42:51.555Z,99229.06
2022-11-15T19:46:54.833Z,99233.44
2022-11-15T19:51:01.783Z,99235.19
2022-11-15T19:55:05.180Z,99236.06
2022-11-15T19:59:08.702Z,99233.44
2022-11-15T20:03:12.190Z,99216.75
2022-11-15T20:07:16.917Z,99222.91
2022-11-15T20:11:21.295Z,99213.25
2022-11-15T20:15:24.535Z,99207.13
2022-11-15T20:19:27.727Z,99208.00
2022-11-15T20:23:32.265Z,99200.09
2022-11-15T20:27:35.375Z,99184.34
2022-11-15T20:31:38.424Z,99188.75
2022-11-15T20:35:42.189Z,99182.63
2022-11-15T20:39:46.588Z,99166.00
2022-11-15T20:43:49.720Z,99171.28
2022-11-15T20:47:55.882Z,99159.88
2022-11-15T20:51:58.898Z,99162.50
2022-11-15T20:56:07.796Z,99161.66
2022-11-15T21:00:11.936Z,99150.25
2022-11-15T21:04:15.085Z,99155.53
2022-11-15T21:08:18.060Z,99164.28
2022-11-15T21:12:21.466Z,99166.03
2022-11-15T21:16:24.474Z,99153.75
2022-11-15T21:20:28.114Z,99164.25
2022-11-15T21:24:31.373Z,99164.25
2022-11-15T21:28:36.089Z,99154.63
2022-11-15T21:32:39.378Z,99156.38
2022-11-15T21:36:42.427Z,99164.28
2022-11-15T21:40:45.541Z,99159.91
2022-11-15T21:44:49.999Z,99152.91
2022-11-15T21:48:52.966Z,99147.66
2022-11-15T21:52:56.173Z,99143.25
2022-11-15T21:56:59.728Z,99138.03
2022-11-15T22:01:24.338Z,99137.13
2022-11-15T22:05:27.693Z,99133.63
2022-11-15T22:09:30.826Z,99131.00
2022-11-15T22:13:34.341Z,99118.75
2022-11-15T22:17:56.086Z,99120.50
2022-11-15T22:21:59.276Z,99113.47
2022-11-15T22:26:03.055Z,99108.28
2022-11-15T22:30:06.797Z,99099.53
2022-11-15T22:34:11.404Z,99099.53
2022-11-15T22:38:14.823Z,99102.13
2022-11-15T22:42:23.232Z,99097.75
2022-11-15T22:46:27.885Z,99086.34
2022-11-15T22:50:32.454Z,99081.09
2022-11-15T22:54:35.772Z,99076.72
2022-11-15T22:58:38.990Z,99082.00
2022-11-15T23:02:42.367Z,99085.47
2022-11-15T23:06:47.084Z,99073.19
2022-11-15T23:11:07.537Z,99080.22
2022-11-15T23:15:11.379Z,99075.81
2022-11-15T23:19:14.779Z,99074.06
2022-11-15T23:23:19.690Z,99063.56
2022-11-15T23:27:23.878Z,99062.69
2022-11-15T23:31:44.175Z,99056.56
2022-11-15T23:35:54.950Z,99047.78
2022-11-15T23:39:59.495Z,99054.81
2022-11-15T23:44:02.805Z,99047.81
2022-11-15T23:48:06.726Z,99038.19
2022-11-15T23:52:09.914Z,99034.69
2022-11-15T23:56:16.682Z,99023.28
